Time;durP1;ratioP1;P1;durP2;ratioP2;P2;SDS_P1;SDS_P2;PMS_P1;PMS_P2;Temp;Humidity;BMP_temperature;BMP_pressure;BME280_temperature;BME280_humidity;BME280_pressure;Samples;Min_cycle;Max_cycle;Signal;HPM_P1;HPM_P2
2023/01/14 00:01:21;;;;;;;66.85;35.28;;;;;;;5.50;97.32;99887.84;5032227;28;20474;-73
2023/01/14 00:03:47;;;;;;;59.67;34.40;;;;;;;5.34;97.09;99876.88;5032370;28;20107;-73
2023/01/14 00:06:16;;;;;;;60.80;33.45;;;;;;;5.09;99.21;99887.06;5032462;28;20017;-73
2023/01/14 00:08:42;;;;;;;77.35;32.67;;;;;;;5.02;100.00;99881.00;5032193;28;20125;-73
2023/01/14 00:11:10;;;;;;;55.95;32.95;;;;;;;5.29;99.73;99869.44;5033497;28;20022;-73
2023/01/14 00:13:37;;;;;;;57.78;31.30;;;;;;;5.48;98.93;99877.03;5031280;28;20040;-73
2023/01/14 00:16:04;;;;;;;56.30;29.45;;;;;;;5.53;98.63;99882.53;5033490;28;20029;-73
2023/01/14 00:18:32;;;;;;;49.97;29.95;;;;;;;5.56;97.54;99886.69;5029831;28;20551;-73
2023/01/14 00:21:00;;;;;;;58.28;29.70;;;;;;;5.65;97.17;99881.34;5033297;28;20463;-73
2023/01/14 00:23:27;;;;;;;45.85;26.17;;;;;;;5.68;96.22;99886.28;5033335;28;20032;-73
2023/01/14 00:25:53;;;;;;;55.33;27.05;;;;;;;5.80;96.67;99888.69;5032733;28;20104;-74
2023/01/14 00:28:18;;;;;;;49.72;26.15;;;;;;;5.75;95.59;99873.72;5032065;28;20025;-73
2023/01/14 00:30:44;;;;;;;42.45;24.55;;;;;;;5.69;96.07;99880.47;5033157;28;20098;-73
2023/01/14 00:33:10;;;;;;;38.65;24.00;;;;;;;5.67;96.64;99882.72;5032481;28;20026;-73
2023/01/14 00:35:35;;;;;;;40.42;23.88;;;;;;;5.69;96.79;99879.63;5031164;28;20037;-74
2023/01/14 00:38:01;;;;;;;36.28;21.55;;;;;;;5.76;95.76;99874.56;5033150;28;20036;-74
2023/01/14 00:40:26;;;;;;;34.33;21.05;;;;;;;5.61;96.17;99881.91;5031866;28;20022;-74
2023/01/14 00:42:52;;;;;;;43.97;25.73;;;;;;;5.73;96.57;99877.91;5033076;28;20029;-73
2023/01/14 00:45:17;;;;;;;44.78;26.80;;;;;;;5.55;97.22;99882.22;5031837;28;20033;-74
2023/01/14 00:47:42;;;;;;;50.15;26.08;;;;;;;5.23;98.89;99875.31;5032145;28;20028;-74
2023/01/14 00:50:10;;;;;;;50.17;30.50;;;;;;;5.30;99.54;99879.41;5031788;28;20048;-73
2023/01/14 00:52:35;;;;;;;55.53;30.08;;;;;;;5.55;98.18;99885.00;5031279;28;20034;-74
2023/01/14 00:55:01;;;;;;;57.83;31.48;;;;;;;5.32;98.67;99868.84;5032630;28;20026;-73
2023/01/14 00:57:26;;;;;;;51.95;29.25;;;;;;;5.41;99.32;99877.34;5031472;28;20488;-74
2023/01/14 00:59:52;;;;;;;54.08;30.13;;;;;;;5.64;97.51;99868.56;5031339;28;20405;-73
2023/01/14 01:02:17;;;;;;;49.53;28.88;;;;;;;5.74;97.11;99862.94;5030864;28;20047;-73
2023/01/14 01:04:43;;;;;;;47.40;27.67;;;;;;;5.87;96.13;99867.78;5032333;28;20103;-73
2023/01/14 01:07:08;;;;;;;50.13;28.92;;;;;;;5.89;95.19;99859.16;5031612;28;20100;-73
2023/01/14 01:09:34;;;;;;;45.28;26.58;;;;;;;5.94;94.67;99877.69;5031845;28;20025;-73
2023/01/14 01:11:59;;;;;;;44.67;27.17;;;;;;;5.97;94.29;99863.22;5031131;28;20111;-73
2023/01/14 01:14:25;;;;;;;40.95;27.10;;;;;;;5.89;94.13;99856.38;5032378;28;20091;-73
2023/01/14 01:16:50;;;;;;;43.42;26.13;;;;;;;5.65;95.58;99853.56;5031046;28;20063;-74
2023/01/14 01:19:16;;;;;;;45.55;26.63;;;;;;;5.75;95.17;99853.47;5032293;28;20412;-73
2023/01/14 01:21:42;;;;;;;42.17;23.65;;;;;;;5.85;94.79;99845.03;5030399;28;20121;-73
2023/01/14 01:24:07;;;;;;;40.22;22.50;;;;;;;5.92;95.22;99843.84;5031123;28;20061;-73
2023/01/14 01:26:33;;;;;;;48.90;24.98;;;;;;;5.89;95.02;99837.78;5029965;28;20040;-74
2023/01/14 01:28:58;;;;;;;41.78;24.88;;;;;;;5.81;94.83;99832.84;5031958;28;20021;-73
2023/01/14 01:31:25;;;;;;;60.38;26.60;;;;;;;5.90;94.38;99824.69;5031661;28;20113;-73
2023/01/14 01:33:51;;;;;;;42.80;23.50;;;;;;;5.86;94.46;99830.03;5030654;28;20416;-73
2023/01/14 01:36:20;;;;;;;47.33;26.83;;;;;;;5.91;94.51;99823.56;5030915;28;20026;-73
2023/01/14 01:38:47;;;;;;;43.85;24.83;;;;;;;5.60;95.30;99819.19;5030001;28;20033;-73
2023/01/14 01:41:18;;;;;;;42.30;24.23;;;;;;;5.75;95.13;99815.44;5030896;28;20028;-73
2023/01/14 01:44:21;;;;;;;41.28;24.98;;;;;;;5.88;95.02;99826.94;5031746;28;20021;-74
2023/01/14 01:46:47;;;;;;;46.33;26.83;;;;;;;5.94;94.30;99822.16;5028604;28;20037;-74
2023/01/14 01:49:19;;;;;;;48.30;26.30;;;;;;;5.91;94.53;99818.03;5028786;28;20033;-74
2023/01/14 01:52:01;;;;;;;43.88;26.23;;;;;;;5.68;95.19;99814.13;5030583;28;20391;-73
2023/01/14 01:54:42;;;;;;;46.63;26.88;;;;;;;5.23;98.46;99809.53;5031671;28;20036;-73
2023/01/14 01:57:10;;;;;;;55.28;30.73;;;;;;;4.84;100.00;99794.63;5012029;28;20409;-73
2023/01/14 01:59:39;;;;;;;54.72;31.92;;;;;;;4.95;100.00;99813.94;5010509;28;20113;-73
2023/01/14 02:02:05;;;;;;;54.72;30.08;;;;;;;4.83;100.00;99809.63;5011749;28;20033;-74
2023/01/14 02:04:31;;;;;;;61.83;32.47;;;;;;;4.74;100.00;99800.25;5023318;28;20030;-74
2023/01/14 02:06:57;;;;;;;69.55;36.90;;;;;;;4.87;100.00;99799.59;5029908;28;20021;-74
2023/01/14 02:09:23;;;;;;;68.13;35.63;;;;;;;4.86;100.00;99794.31;5031400;28;20033;-73
2023/01/14 02:11:54;;;;;;;61.10;33.38;;;;;;;5.22;100.00;99785.72;5030122;28;20021;-73
2023/01/14 02:14:47;;;;;;;55.47;31.05;;;;;;;5.46;100.00;99787.69;5031281;28;20075;-73
2023/01/14 02:17:12;;;;;;;50.33;30.20;;;;;;;5.32;100.00;99784.81;5031483;28;20030;-73
2023/01/14 02:19:44;;;;;;;52.17;29.77;;;;;;;5.52;100.00;99782.94;5029820;28;20033;-73
2023/01/14 02:22:24;;;;;;;44.55;26.85;;;;;;;5.52;99.94;99791.25;5029877;28;20033;-73
2023/01/14 02:25:20;;;;;;;52.40;28.90;;;;;;;5.42;99.26;99784.69;5029850;28;20343;-74
2023/01/14 02:27:53;;;;;;;64.32;33.42;;;;;;;5.39;98.71;99793.59;5031299;28;20487;-74
2023/01/14 02:30:36;;;;;;;54.03;28.50;;;;;;;5.09;100.00;99790.00;5031132;28;20500;-73
2023/01/14 02:33:21;;;;;;;51.13;29.85;;;;;;;4.88;100.00;99790.16;5031209;28;20053;-74
2023/01/14 02:36:05;;;;;;;49.85;28.48;;;;;;;4.62;100.00;99797.81;5030024;28;20057;-73
2023/01/14 02:38:45;;;;;;;53.22;30.75;;;;;;;4.64;100.00;99790.88;5030055;28;20500;-73
2023/01/14 02:41:17;;;;;;;53.80;28.33;;;;;;;4.61;100.00;99799.78;5031062;28;20029;-74
2023/01/14 02:44:09;;;;;;;54.53;28.95;;;;;;;4.81;100.00;99791.59;5029542;28;20036;-73
2023/01/14 02:46:37;;;;;;;56.13;30.60;;;;;;;4.87;100.00;99795.97;5030855;28;20559;-73
2023/01/14 02:49:06;;;;;;;58.85;29.50;;;;;;;4.80;100.00;99790.75;5030249;28;20051;-73
2023/01/14 02:51:33;;;;;;;55.67;31.17;;;;;;;4.84;100.00;99800.19;5030942;28;20435;-74
2023/01/14 02:53:58;;;;;;;57.55;30.75;;;;;;;4.75;100.00;99791.63;5031080;28;20025;-73
2023/01/14 02:56:24;;;;;;;55.00;29.35;;;;;;;4.95;100.00;99802.84;5029448;28;20102;-74
2023/01/14 02:59:10;;;;;;;54.40;30.30;;;;;;;5.24;100.00;99805.66;5033149;28;20025;-74
2023/01/14 03:01:39;;;;;;;52.22;28.85;;;;;;;5.32;100.00;99802.25;5035137;28;20028;-74
2023/01/14 03:04:30;;;;;;;59.40;29.50;;;;;;;5.52;100.00;99807.91;5017207;28;20554;-74
2023/01/14 03:07:08;;;;;;;47.10;27.05;;;;;;;5.50;100.00;99805.44;5014893;28;20126;-74
2023/01/14 03:09:52;;;;;;;43.47;25.95;;;;;;;5.61;100.00;99811.69;5014810;28;20507;-73
2023/01/14 03:12:40;;;;;;;52.58;26.25;;;;;;;5.74;100.00;99816.56;5014979;28;20030;-74
2023/01/14 03:15:26;;;;;;;54.08;28.08;;;;;;;5.73;99.76;99811.28;5018479;28;20025;-74
2023/01/14 03:18:27;;;;;;;55.45;29.15;;;;;;;5.70;99.73;99806.31;5032587;28;20065;-73
2023/01/14 03:21:03;;;;;;;54.47;30.42;;;;;;;5.80;98.79;99822.06;5034375;28;20124;-74
2023/01/14 03:23:33;;;;;;;51.35;31.63;;;;;;;5.77;97.56;99815.16;5034429;28;20029;-74
2023/01/14 03:26:00;;;;;;;57.80;31.63;;;;;;;5.47;97.88;99814.31;5032939;28;20504;-74
2023/01/14 03:28:38;;;;;;;61.08;31.65;;;;;;;5.67;97.32;99806.94;5034177;28;20037;-73
2023/01/14 03:31:10;;;;;;;62.70;31.25;;;;;;;5.68;96.31;99806.63;5032866;28;20030;-73
2023/01/14 03:33:50;;;;;;;50.58;30.83;;;;;;;5.78;95.88;99813.19;5033168;28;20036;-73
2023/01/14 03:36:18;;;;;;;59.30;33.05;;;;;;;5.79;95.34;99812.91;5034076;28;20104;-74
2023/01/14 03:38:49;;;;;;;55.70;33.78;;;;;;;5.78;95.20;99794.59;5034262;28;20037;-73
2023/01/14 03:42:17;;;;;;;60.05;34.65;;;;;;;5.87;94.40;99800.31;5034199;28;20021;-73
2023/01/14 03:44:08;;;;;;;66.53;38.40;;;;;;;5.84;93.82;99789.81;5034041;28;20445;-73
2023/01/14 03:46:35;;;;;;;58.17;35.05;;;;;;;5.93;93.43;99803.84;5032977;28;20039;-73
2023/01/14 03:49:01;;;;;;;59.65;33.58;;;;;;;5.89;93.25;99798.06;5033931;28;20488;-73
2023/01/14 03:51:59;;;;;;;56.33;34.03;;;;;;;5.98;92.31;99809.38;5033975;28;20036;-73
2023/01/14 03:54:34;;;;;;;57.90;32.53;;;;;;;5.97;92.23;99810.47;5033680;28;20033;-73
2023/01/14 03:57:50;;;;;;;53.63;32.45;;;;;;;5.96;92.37;99804.09;5032996;28;20484;-74
2023/01/14 04:00:44;;;;;;;50.50;30.17;;;;;;;5.90;92.65;99806.09;5043465;28;20470;-73
2023/01/14 04:03:11;;;;;;;50.53;30.52;;;;;;;5.98;93.21;99807.41;5032792;28;20037;-74
2023/01/14 04:05:37;;;;;;;52.28;31.42;;;;;;;5.99;92.94;99811.84;5033565;28;20056;-74
2023/01/14 04:08:05;;;;;;;52.38;30.88;;;;;;;5.89;92.95;99814.72;5033586;28;20061;-74
2023/01/14 04:10:31;;;;;;;60.83;35.47;;;;;;;5.96;92.91;99809.66;5032524;28;20029;-74
2023/01/14 04:15:40;;;;;;;59.17;34.40;;;;;;;5.97;92.61;99805.75;5032442;28;20060;-74
2023/01/14 04:18:05;;;;;;;67.97;34.38;;;;;;;6.01;92.26;99804.06;5033534;28;20029;-74
2023/01/14 04:20:31;;;;;;;63.30;35.35;;;;;;;5.97;92.07;99814.09;5032121;28;20108;-74
2023/01/14 04:22:57;;;;;;;58.90;33.67;;;;;;;5.76;92.06;99814.31;5033239;28;20034;-73
2023/01/14 04:25:22;;;;;;;61.42;35.08;;;;;;;5.87;92.52;99815.03;5033764;28;20072;-73
2023/01/14 04:27:48;;;;;;;58.97;35.15;;;;;;;5.88;92.62;99804.75;5033361;28;20021;-74
2023/01/14 04:30:14;;;;;;;66.30;36.95;;;;;;;5.92;92.41;99816.94;5029455;28;20025;-73
2023/01/14 04:32:39;;;;;;;70.93;37.92;;;;;;;5.84;92.54;99810.06;5032998;28;20040;-74
2023/01/14 04:35:05;;;;;;;63.65;35.53;;;;;;;5.90;92.89;99805.25;5031907;28;20038;-74
2023/01/14 04:37:31;;;;;;;64.88;34.47;;;;;;;5.99;92.20;99814.59;5032031;28;20026;-74
2023/01/14 04:39:56;;;;;;;63.00;36.85;;;;;;;6.00;92.22;99810.72;5031933;28;20036;-73
2023/01/14 04:42:27;;;;;;;60.35;35.17;;;;;;;6.03;92.47;99814.88;5033081;28;20174;-73
2023/01/14 04:44:58;;;;;;;59.42;34.10;;;;;;;6.04;92.31;99805.41;5030105;28;20041;-75
2023/01/14 04:47:23;;;;;;;;;;;;;;;5.99;92.65;99814.59;5033347;28;20048;-74
2023/01/14 04:49:50;;;;;;;74.95;36.15;;;;;;;5.82;92.82;99800.38;5032875;28;19913;-74
2023/01/14 04:52:15;;;;;;;66.57;35.88;;;;;;;5.77;93.40;99817.91;5031612;28;20088;-74
2023/01/14 04:54:41;;;;;;;62.50;35.65;;;;;;;5.80;93.46;99825.66;5031936;28;20485;-74
2023/01/14 04:57:07;;;;;;;59.10;32.88;;;;;;;5.89;93.52;99832.22;5032036;28;20025;-73
2023/01/14 04:59:33;;;;;;;62.53;35.47;;;;;;;5.79;93.44;99821.22;5031973;28;20029;-72
2023/01/14 05:01:59;;;;;;;62.85;32.63;;;;;;;5.86;93.86;99823.66;5031981;28;20033;-70
2023/01/14 05:04:24;;;;;;;54.30;30.77;;;;;;;5.80;93.84;99816.50;5032140;28;20032;-70
2023/01/14 05:06:50;;;;;;;53.33;29.95;;;;;;;5.86;93.72;99827.25;5031009;28;20033;-69
2023/01/14 05:09:15;;;;;;;62.55;33.88;;;;;;;5.93;93.26;99826.06;5029963;28;20041;-70
2023/01/14 05:11:41;;;;;;;55.50;31.08;;;;;;;5.88;93.68;99835.28;5030643;28;20120;-71
2023/01/14 05:14:06;;;;;;;59.15;33.00;;;;;;;5.81;93.97;99840.38;5032318;28;20037;-71
2023/01/14 05:16:32;;;;;;;64.25;34.25;;;;;;;5.78;94.03;99814.03;5030916;28;20044;-70
2023/01/14 05:18:57;;;;;;;62.20;32.63;;;;;;;6.06;92.96;99830.94;5031826;28;20025;-71
2023/01/14 05:21:24;;;;;;;57.20;30.15;;;;;;;6.08;92.93;99839.81;5031181;28;20064;-70
2023/01/14 05:23:49;;;;;;;51.15;30.27;;;;;;;6.02;93.37;99841.00;5030985;28;20607;-71
2023/01/14 05:26:15;;;;;;;52.75;30.35;;;;;;;5.99;93.13;99824.91;5032301;28;20037;-72
2023/01/14 05:28:40;;;;;;;48.75;30.45;;;;;;;6.00;92.26;99823.78;5032091;28;20036;-73
2023/01/14 05:31:06;;;;;;;46.67;26.25;;;;;;;6.11;92.38;99832.84;5030429;28;20120;-69
2023/01/14 05:33:32;;;;;;;51.25;30.83;;;;;;;6.09;92.29;99835.09;5031710;28;20029;-69
2023/01/14 05:35:58;;;;;;;51.05;30.25;;;;;;;6.15;91.69;99831.09;5031009;28;20033;-70
2023/01/14 05:38:25;;;;;;;56.75;31.65;;;;;;;6.18;91.65;99825.78;5031907;28;20025;-72
2023/01/14 05:40:51;;;;;;;48.47;29.63;;;;;;;6.20;91.04;99830.22;5031967;28;20040;-70
2023/01/14 05:46:09;;;;;;;54.13;30.88;;;;;;;6.15;90.80;99828.34;5031982;28;20494;-69
2023/01/14 05:48:35;;;;;;;56.10;29.65;;;;;;;6.19;90.84;99834.97;5030592;28;20511;-67
2023/01/14 05:51:02;;;;;;;59.67;32.38;;;;;;;6.13;91.25;99830.59;5031639;28;20039;-69
2023/01/14 05:53:28;;;;;;;65.88;34.40;;;;;;;6.09;91.20;99835.09;5031158;28;20013;-70
2023/01/14 05:55:55;;;;;;;53.92;34.00;;;;;;;6.04;91.42;99830.41;5031805;28;20036;-71
2023/01/14 05:58:21;;;;;;;63.50;35.88;;;;;;;6.12;91.43;99824.22;5032443;28;20021;-68
2023/01/14 06:06:32;;;;;;;66.70;40.08;;;;;;;6.24;90.20;99825.75;5031053;28;20109;-69
2023/01/14 06:09:12;;;;;;;64.28;37.13;;;;;;;6.20;90.45;99827.44;5031405;28;20037;-71
2023/01/14 06:11:39;;;;;;;84.13;43.15;;;;;;;6.18;90.33;99823.00;5031193;28;20062;-68
2023/01/14 06:14:05;;;;;;;66.32;36.75;;;;;;;6.23;90.39;99822.13;5028673;28;20021;-70
2023/01/14 06:16:39;;;;;;;67.78;38.92;;;;;;;6.29;90.45;99834.84;5030724;28;20381;-69
2023/01/14 06:19:06;;;;;;;80.53;44.08;;;;;;;5.76;93.24;99828.19;5029094;28;20420;-69
2023/01/14 06:21:33;;;;;;;70.72;38.70;;;;;;;5.74;93.62;99830.44;5029155;28;20068;-70
2023/01/14 06:23:58;;;;;;;74.00;36.80;;;;;;;5.75;94.71;99825.72;5031678;28;20459;-70
2023/01/14 06:26:27;;;;;;;76.07;40.38;;;;;;;5.89;94.06;99809.16;5030181;28;20056;-69
2023/01/14 06:29:06;;;;;;;85.35;44.58;;;;;;;5.74;94.69;99813.78;5030071;28;20044;-70
2023/01/14 06:31:32;;;;;;;89.85;50.08;;;;;;;5.94;94.44;99830.50;5030570;28;20017;-69
2023/01/14 06:34:01;;;;;;;102.28;54.83;;;;;;;5.72;95.27;99821.56;5028581;28;20029;-71
2023/01/14 06:36:27;;;;;;;97.85;55.08;;;;;;;5.52;97.28;99825.41;5028845;28;20032;-70
2023/01/14 06:38:52;;;;;;;107.63;55.70;;;;;;;5.36;97.90;99813.59;5029554;28;20026;-70
2023/01/14 06:41:18;;;;;;;117.20;56.58;;;;;;;5.40;99.41;99825.75;5029637;28;20043;-69
2023/01/14 06:43:44;;;;;;;94.35;54.67;;;;;;;5.26;99.04;99819.25;5030662;28;20032;-69
2023/01/14 06:46:14;;;;;;;93.25;51.63;;;;;;;5.25;99.96;99835.06;5027318;28;20131;-70
2023/01/14 06:48:41;;;;;;;100.38;51.42;;;;;;;5.44;99.11;99831.56;5029720;28;20021;-68
2023/01/14 06:51:12;;;;;;;104.75;52.35;;;;;;;5.28;99.65;99828.09;5029765;28;20022;-69
2023/01/14 06:53:38;;;;;;;102.93;54.25;;;;;;;5.41;99.54;99832.97;5030871;28;20101;-69
2023/01/14 06:56:06;;;;;;;99.75;54.72;;;;;;;5.30;100.00;99832.25;5028060;28;20451;-69
2023/01/14 06:58:32;;;;;;;111.95;52.72;;;;;;;5.53;100.00;99829.81;5033877;28;20017;-71
2023/01/14 07:00:58;;;;;;;118.20;55.78;;;;;;;5.81;99.26;99837.59;5029703;28;20443;-70
2023/01/14 07:03:25;;;;;;;95.78;51.25;;;;;;;5.70;98.80;99818.28;5029359;28;20017;-72
2023/01/14 07:05:50;;;;;;;92.25;50.03;;;;;;;5.90;98.71;99827.47;5024264;28;20404;-71
2023/01/14 07:08:16;;;;;;;81.00;46.97;;;;;;;5.76;97.70;99817.06;5024926;28;20045;-70
2023/01/14 07:10:42;;;;;;;84.63;47.15;;;;;;;5.94;98.41;99828.56;5028040;28;20021;-72
2023/01/14 07:13:07;;;;;;;74.07;40.85;;;;;;;6.03;97.58;99826.81;5025602;28;20028;-72
2023/01/14 07:15:33;;;;;;;66.25;34.60;;;;;;;6.18;96.85;99831.34;5029598;28;20036;-75
2023/01/14 07:17:58;;;;;;;67.80;38.88;;;;;;;6.30;96.16;99833.72;5028405;28;20032;-76
2023/01/14 07:20:23;;;;;;;52.55;27.58;;;;;;;5.66;99.34;99830.25;5029521;28;20021;-72
2023/01/14 07:22:49;;;;;;;54.60;27.63;;;;;;;5.73;99.34;99826.00;5022466;28;20021;-76
2023/01/14 07:25:15;;;;;;;53.08;29.05;;;;;;;6.07;98.05;99832.59;5020501;28;20408;-74
2023/01/14 07:27:41;;;;;;;62.10;30.90;;;;;;;6.20;96.33;99817.16;5030711;28;20029;-73
2023/01/14 07:30:07;;;;;;;60.63;31.48;;;;;;;6.23;95.75;99827.69;5029564;28;20036;-78
2023/01/14 07:32:33;;;;;;;70.60;35.35;;;;;;;6.23;95.87;99826.88;5026073;28;20025;-70
2023/01/14 07:34:59;;;;;;;62.72;33.45;;;;;;;6.36;94.83;99828.09;5027286;28;20463;-68
2023/01/14 07:37:24;;;;;;;65.25;36.55;;;;;;;6.42;94.44;99833.28;5028907;28;20117;-77
2023/01/14 07:39:50;;;;;;;67.80;37.92;;;;;;;6.53;93.91;99831.19;5025564;28;20433;-70
2023/01/14 07:42:18;;;;;;;71.55;38.53;;;;;;;6.54;93.19;99835.63;5028091;28;20103;-66
2023/01/14 07:44:44;;;;;;;74.57;37.38;;;;;;;6.59;93.04;99832.75;5026766;28;20396;-73
2023/01/14 07:47:11;;;;;;;81.15;43.95;;;;;;;6.50;93.08;99834.56;5029467;28;20033;-71
2023/01/14 07:49:39;;;;;;;81.75;42.83;;;;;;;6.60;93.14;99833.59;5031454;28;20104;-72
2023/01/14 07:52:05;;;;;;;78.63;43.90;;;;;;;6.64;92.41;99825.50;5029477;28;20021;-73
2023/01/14 07:54:31;;;;;;;86.13;45.30;;;;;;;6.60;92.97;99834.41;5032581;28;20021;-73
2023/01/14 07:56:56;;;;;;;79.60;43.63;;;;;;;6.45;93.90;99838.22;5032658;28;20037;-71
2023/01/14 07:59:22;;;;;;;87.57;44.75;;;;;;;6.62;93.48;99831.34;5034039;28;20069;-72
2023/01/14 08:01:47;;;;;;;78.47;39.25;;;;;;;6.41;93.45;99831.63;5032632;28;20029;-71
2023/01/14 08:04:12;;;;;;;84.75;40.67;;;;;;;6.34;93.68;99824.78;5033712;28;20029;-69
2023/01/14 08:06:38;;;;;;;80.50;39.70;;;;;;;6.40;94.39;99831.94;5032969;28;20029;-69
2023/01/14 08:09:03;;;;;;;69.80;37.17;;;;;;;5.88;97.72;99829.72;5032517;28;20037;-71
2023/01/14 08:11:29;;;;;;;68.00;34.38;;;;;;;5.80;98.61;99833.97;5033734;28;20025;-70
2023/01/14 08:13:55;;;;;;;64.97;32.20;;;;;;;5.57;100.00;99841.16;5033506;28;20032;-69
2023/01/14 08:16:21;;;;;;;67.25;33.65;;;;;;;5.61;100.00;99842.22;5032646;28;20037;-69
2023/01/14 08:18:48;;;;;;;76.80;39.63;;;;;;;5.70;100.00;99845.19;5032233;28;20061;-68
2023/01/14 08:21:14;;;;;;;57.97;31.52;;;;;;;5.59;100.00;99836.16;5033218;28;20037;-68
2023/01/14 08:23:39;;;;;;;56.30;28.80;;;;;;;5.32;100.00;99832.78;5033135;28;20471;-68
2023/01/14 08:26:08;;;;;;;69.00;33.33;;;;;;;5.35;100.00;99842.47;5033348;28;20096;-68
2023/01/14 08:28:35;;;;;;;56.42;31.08;;;;;;;5.46;100.00;99840.41;5033334;28;20100;-68
2023/01/14 08:31:04;;;;;;;59.25;33.55;;;;;;;5.50;100.00;99840.66;5031722;28;20431;-73
2023/01/14 08:33:30;;;;;;;54.25;27.40;;;;;;;5.42;100.00;99840.16;5032248;28;20033;-70
2023/01/14 08:35:59;;;;;;;63.17;32.65;;;;;;;5.41;100.00;99844.06;5031388;28;20038;-69
2023/01/14 08:38:25;;;;;;;63.30;31.30;;;;;;;5.53;100.00;99838.16;5031788;28;20105;-70
2023/01/14 08:40:51;;;;;;;69.38;32.47;;;;;;;5.61;100.00;99848.63;5032937;28;20544;-69
2023/01/14 08:43:17;;;;;;;49.10;25.08;;;;;;;5.60;100.00;99843.34;5033131;28;20049;-69
2023/01/14 08:45:42;;;;;;;52.45;28.83;;;;;;;5.78;100.00;99858.44;5031972;28;20107;-69
2023/01/14 08:48:08;;;;;;;55.10;26.52;;;;;;;5.90;100.00;99852.47;5033360;28;20400;-68
2023/01/14 08:50:34;;;;;;;49.50;25.95;;;;;;;6.18;100.00;99858.31;5031610;28;20067;-68
2023/01/14 08:52:59;;;;;;;69.32;23.88;;;;;;;6.42;100.00;99851.91;5032912;28;20025;-67
2023/01/14 08:55:25;;;;;;;67.88;31.55;;;;;;;6.56;99.55;99858.38;5032396;28;20022;-68
2023/01/14 08:57:50;;;;;;;41.53;22.95;;;;;;;6.35;99.98;99854.22;5032925;28;20030;-68
2023/01/14 09:00:17;;;;;;;52.53;23.30;;;;;;;6.70;99.17;99855.72;5031918;28;20025;-68
2023/01/14 09:02:42;;;;;;;46.08;24.48;;;;;;;6.52;98.35;99851.78;5031912;28;20385;-69
2023/01/14 09:05:08;;;;;;;44.00;20.50;;;;;;;6.72;98.08;99845.09;5032491;28;20048;-68
2023/01/14 09:18:29;;;;;;;41.70;21.30;;;;;;;6.92;96.89;99836.75;5016353;28;20546;-68
2023/01/14 09:20:55;;;;;;;41.80;23.48;;;;;;;6.84;97.46;99839.06;5032197;28;20025;-68
2023/01/14 09:23:20;;;;;;;124.55;40.20;;;;;;;6.85;97.50;99843.50;5031037;28;20033;-68
2023/01/14 09:25:46;;;;;;;310.88;81.93;;;;;;;6.96;97.69;99844.19;5031882;28;20061;-69
2023/01/14 09:28:11;;;;;;;66.93;29.33;;;;;;;6.94;96.72;99831.72;5031008;28;20508;-69
2023/01/14 09:30:37;;;;;;;37.95;20.70;;;;;;;6.81;97.45;99830.50;5012246;28;20600;-69
2023/01/14 09:33:06;;;;;;;48.67;24.33;;;;;;;6.89;97.81;99824.28;5016215;28;20031;-71
2023/01/14 09:35:32;;;;;;;52.38;26.30;;;;;;;7.02;97.24;99829.06;5012469;28;20026;-69
2023/01/14 09:37:57;;;;;;;105.57;46.63;;;;;;;7.22;96.68;99831.81;5012426;28;20018;-70
2023/01/14 09:40:23;;;;;;;67.72;33.45;;;;;;;7.25;95.74;99831.25;5028050;28;20143;-69
2023/01/14 09:42:50;;;;;;;58.28;29.27;;;;;;;7.28;95.07;99833.41;5030021;28;20404;-68
2023/01/14 09:45:28;;;;;;;45.80;23.95;;;;;;;7.16;95.20;99837.50;5030726;28;20091;-69
2023/01/14 09:47:57;;;;;;;37.85;21.48;;;;;;;7.08;94.83;99831.78;5030266;28;20036;-69
2023/01/14 09:50:45;;;;;;;47.00;26.48;;;;;;;7.21;95.15;99830.19;5030687;28;20411;-70
2023/01/14 09:53:20;;;;;;;38.97;20.52;;;;;;;6.95;94.67;99839.78;5036234;28;20037;-69
2023/01/14 09:55:51;;;;;;;43.13;24.38;;;;;;;7.23;95.28;99825.97;5040441;28;20021;-69
2023/01/14 09:58:20;;;;;;;47.72;25.35;;;;;;;7.38;94.52;99826.84;5039832;28;20098;-69
2023/01/14 10:00:53;;;;;;;67.72;32.13;;;;;;;7.37;93.80;99828.81;5039997;28;20078;-71
2023/01/14 10:03:31;;;;;;;50.67;29.50;;;;;;;7.43;93.36;99823.97;5028689;28;20098;-68
2023/01/14 10:06:03;;;;;;;48.58;25.85;;;;;;;7.25;94.44;99822.91;5029302;28;20021;-69
2023/01/14 10:08:35;;;;;;;49.05;26.85;;;;;;;7.13;94.74;99807.50;5028144;28;20077;-69
2023/01/14 10:11:02;;;;;;;53.88;29.58;;;;;;;7.12;95.49;99810.56;5027677;28;20044;-71
2023/01/14 10:13:40;;;;;;;61.03;31.95;;;;;;;7.10;95.66;99810.88;5025224;28;20507;-71
2023/01/14 10:16:19;;;;;;;61.10;35.83;;;;;;;7.11;95.77;99814.50;5038472;28;20420;-72
2023/01/14 10:18:59;;;;;;;57.95;33.58;;;;;;;7.03;95.99;99807.66;5025563;28;20083;-70
2023/01/14 10:21:46;;;;;;;52.17;29.55;;;;;;;6.92;96.73;99806.97;5028280;28;20499;-71
2023/01/14 10:24:14;;;;;;;55.80;32.17;;;;;;;6.87;96.77;99810.66;5026792;28;20032;-70
2023/01/14 10:26:42;;;;;;;52.30;30.17;;;;;;;6.97;97.02;99804.13;5029216;28;20562;-70
2023/01/14 10:29:16;;;;;;;64.28;31.35;;;;;;;6.98;96.39;99799.38;5028574;28;20029;-70
2023/01/14 10:31:46;;;;;;;54.22;30.52;;;;;;;7.20;95.83;99806.25;5026352;28;20026;-70
2023/01/14 10:34:16;;;;;;;60.45;29.10;;;;;;;7.18;95.75;99802.97;5033775;28;20484;-70
2023/01/14 10:36:42;;;;;;;54.63;30.88;;;;;;;7.23;95.42;99798.16;5028428;28;20025;-70
2023/01/14 10:39:11;;;;;;;60.38;35.83;;;;;;;7.24;95.94;99797.00;5028543;28;20052;-71
2023/01/14 10:41:48;;;;;;;67.45;41.25;;;;;;;7.16;95.34;99792.13;5028512;28;20029;-70
2023/01/14 10:44:34;;;;;;;75.43;41.65;;;;;;;7.35;95.65;99800.44;5028219;28;20400;-70
2023/01/14 10:47:19;;;;;;;70.13;39.67;;;;;;;7.42;93.68;99792.53;5026431;28;20028;-70
2023/01/14 10:49:47;;;;;;;61.22;33.25;;;;;;;7.47;93.59;99790.75;5024888;28;20079;-70
2023/01/14 10:52:33;;;;;;;63.38;33.95;;;;;;;7.44;93.30;99784.69;5027716;28;20025;-71
2023/01/14 10:55:10;;;;;;;73.20;37.60;;;;;;;7.51;93.63;99789.84;5020964;28;20045;-72
2023/01/14 10:57:39;;;;;;;70.10;37.42;;;;;;;7.56;92.12;99781.41;5028170;28;20036;-73
2023/01/14 11:00:08;;;;;;;69.80;38.65;;;;;;;7.57;91.98;99782.22;5028233;28;20045;-75
2023/01/14 11:02:38;;;;;;;68.15;37.25;;;;;;;7.48;92.84;99784.06;5028036;28;20088;-72
2023/01/14 11:05:22;;;;;;;70.05;34.47;;;;;;;7.50;93.15;99784.59;5027839;28;20033;-73
2023/01/14 11:07:50;;;;;;;63.63;33.08;;;;;;;7.51;92.55;99775.94;5026451;28;20069;-73
2023/01/14 11:10:18;;;;;;;61.75;32.55;;;;;;;7.40;93.76;99782.81;5028033;28;20550;-69
2023/01/14 11:12:44;;;;;;;64.95;34.17;;;;;;;7.55;92.21;99784.50;5027897;28;20029;-69
2023/01/14 11:15:33;;;;;;;71.28;34.95;;;;;;;7.55;92.87;99782.56;5027581;28;20036;-70
2023/01/14 11:18:19;;;;;;;64.65;33.25;;;;;;;7.65;92.45;99781.53;5027776;28;20025;-71
2023/01/14 11:21:13;;;;;;;71.97;37.50;;;;;;;7.41;92.81;99779.75;5029438;28;20029;-70
2023/01/14 11:23:52;;;;;;;75.15;37.47;;;;;;;7.42;93.68;99780.56;5031302;28;20064;-71
2023/01/14 11:26:25;;;;;;;73.97;37.53;;;;;;;7.48;93.17;99773.78;5030881;28;20052;-69
2023/01/14 11:28:52;;;;;;;68.22;37.42;;;;;;;7.53;93.37;99778.41;5032329;28;20033;-71
2023/01/14 11:31:31;;;;;;;79.22;37.83;;;;;;;7.48;93.97;99764.59;5031055;28;20514;-71
2023/01/14 11:33:58;;;;;;;76.30;35.78;;;;;;;7.55;93.24;99768.63;5030724;28;20105;-70
2023/01/14 11:36:27;;;;;;;70.47;37.25;;;;;;;7.55;93.37;99768.63;5029026;28;20051;-71
2023/01/14 11:38:57;;;;;;;81.57;39.13;;;;;;;7.50;93.61;99770.69;5035956;28;20112;-72
2023/01/14 11:41:37;;;;;;;76.15;39.08;;;;;;;7.56;94.03;99772.22;5032344;28;20034;-74
2023/01/14 11:44:18;;;;;;;74.47;37.92;;;;;;;7.59;93.89;99771.59;5031746;28;20025;-75
2023/01/14 11:46:45;;;;;;;75.35;37.15;;;;;;;7.54;94.04;99772.56;5024793;28;20489;-70
2023/01/14 11:49:21;;;;;;;72.85;37.42;;;;;;;7.54;93.60;99768.94;5032515;28;20040;-70
2023/01/14 11:51:58;;;;;;;78.97;41.05;;;;;;;7.55;95.43;99776.16;5032361;28;20109;-71
2023/01/14 11:54:28;;;;;;;78.75;39.97;;;;;;;7.61;94.19;99769.38;5029742;28;20022;-71
2023/01/14 11:56:54;;;;;;;72.55;37.88;;;;;;;7.67;93.52;99770.91;5030160;28;20033;-71
2023/01/14 11:59:31;;;;;;;73.43;38.72;;;;;;;7.78;92.76;99765.94;5023417;28;20029;-72